createdAt,value
2017-11-17T00:00:55.676Z,31.98
2017-11-17T00:03:24.043Z,30.17
2017-11-17T00:05:51.632Z,31.23
2017-11-17T00:08:19.990Z,30.50
2017-11-17T00:10:47.541Z,33.25
2017-11-17T00:13:15.136Z,32.85
2017-11-17T00:15:42.726Z,33.17
2017-11-17T00:18:10.277Z,31.95
2017-11-17T00:20:38.129Z,33.20
2017-11-17T00:23:05.726Z,33.28
2017-11-17T00:25:33.324Z,33.42
2017-11-17T00:28:01.680Z,32.55
2017-11-17T00:30:29.276Z,31.52
2017-11-17T00:32:57.636Z,32.60
2017-11-17T00:35:25.188Z,31.95
2017-11-17T00:37:52.784Z,31.15
2017-11-17T00:40:20.377Z,29.27
2017-11-17T00:42:47.934Z,29.30
2017-11-17T00:45:15.581Z,30.88
2017-11-17T00:47:43.203Z,32.30
2017-11-17T00:50:11.565Z,31.50
2017-11-17T00:52:39.160Z,30.20
2017-11-17T00:55:07.533Z,30.92
2017-11-17T00:57:35.897Z,30.60
2017-11-17T01:00:03.548Z,29.92
2017-11-17T01:02:31.111Z,29.77
2017-11-17T01:04:58.700Z,29.45
2017-11-17T01:07:26.290Z,29.05
2017-11-17T01:09:53.880Z,30.10
2017-11-17T01:12:21.431Z,28.25
2017-11-17T01:14:49.016Z,30.60
2017-11-17T01:17:16.610Z,27.35
2017-11-17T01:19:44.166Z,29.95
2017-11-17T01:22:11.758Z,29.45
2017-11-17T01:24:39.383Z,30.45
2017-11-17T01:27:06.940Z,29.30
2017-11-17T01:29:35.306Z,27.83
2017-11-17T01:32:03.672Z,28.75
2017-11-17T01:34:31.264Z,28.62
2017-11-17T01:36:58.857Z,26.73
2017-11-17T01:39:26.452Z,29.73
2017-11-17T01:41:54.004Z,29.23
2017-11-17T01:44:21.532Z,26.65
2017-11-17T01:46:49.135Z,28.05
2017-11-17T01:49:16.775Z,27.17
2017-11-17T01:51:44.370Z,26.95
2017-11-17T01:54:12.689Z,27.00
2017-11-17T01:56:40.295Z,28.60
2017-11-17T01:59:07.889Z,27.15
2017-11-17T02:01:35.538Z,26.92
2017-11-17T02:04:03.935Z,26.08
2017-11-17T02:06:31.556Z,26.08
2017-11-17T02:08:59.172Z,27.27
2017-11-17T02:11:26.787Z,26.00
2017-11-17T02:13:54.414Z,28.05
2017-11-17T02:16:26.484Z,25.88
2017-11-17T02:18:55.029Z,26.35
2017-11-17T02:21:22.676Z,26.65
2017-11-17T02:23:51.066Z,25.92
2017-11-17T02:26:18.660Z,23.38
2017-11-17T02:28:46.285Z,24.02
2017-11-17T02:31:13.873Z,25.33
2017-11-17T02:33:41.560Z,24.67
2017-11-17T02:36:09.170Z,24.50
2017-11-17T02:38:36.804Z,23.85
2017-11-17T02:41:05.153Z,24.48
2017-11-17T02:43:32.774Z,23.35
2017-11-17T02:46:00.438Z,24.73
2017-11-17T02:48:28.040Z,21.65
2017-11-17T02:50:55.674Z,23.80
2017-11-17T02:53:23.297Z,23.08
2017-11-17T02:55:51.717Z,23.83
2017-11-17T02:58:20.322Z,23.75
2017-11-17T03:00:47.891Z,22.58
2017-11-17T03:03:15.516Z,22.42
2017-11-17T03:05:43.135Z,23.12
2017-11-17T03:08:10.729Z,23.95
2017-11-17T03:10:38.292Z,24.12
2017-11-17T03:13:05.853Z,22.40
2017-11-17T03:15:33.485Z,22.08
2017-11-17T03:18:01.096Z,22.30
2017-11-17T03:20:28.693Z,23.30
2017-11-17T03:22:56.295Z,23.38
2017-11-17T03:25:23.921Z,21.90
2017-11-17T03:27:51.532Z,23.83
2017-11-17T03:30:19.150Z,21.37
2017-11-17T03:32:47.592Z,22.23
2017-11-17T03:35:15.193Z,22.25
2017-11-17T03:37:43.513Z,21.30
2017-11-17T03:40:11.106Z,21.25
2017-11-17T03:42:38.702Z,22.33
2017-11-17T03:45:07.138Z,20.62
2017-11-17T03:47:34.748Z,21.80
2017-11-17T03:50:02.348Z,21.55
2017-11-17T03:52:29.944Z,22.80
2017-11-17T03:54:57.541Z,22.08
2017-11-17T03:57:25.160Z,22.27
2017-11-17T03:59:52.730Z,22.67
2017-11-17T04:02:20.333Z,23.23
2017-11-17T04:04:47.932Z,25.08
2017-11-17T04:07:15.525Z,22.55
2017-11-17T04:09:43.932Z,23.08
2017-11-17T04:12:11.532Z,23.38
2017-11-17T04:14:39.124Z,24.30
2017-11-17T04:17:07.494Z,24.42
2017-11-17T04:19:35.830Z,23.12
2017-11-17T04:22:03.432Z,22.45
2017-11-17T04:24:31.800Z,21.55
2017-11-17T04:26:59.406Z,23.42
2017-11-17T04:29:27.008Z,23.17
2017-11-17T04:31:54.607Z,22.75
2017-11-17T04:34:22.965Z,22.17
2017-11-17T04:36:50.524Z,21.92
2017-11-17T04:39:18.046Z,22.52
2017-11-17T04:41:45.649Z,24.37
2017-11-17T04:44:13.274Z,21.20
2017-11-17T04:46:40.865Z,20.80
2017-11-17T04:49:08.469Z,21.10
2017-11-17T04:51:36.086Z,21.15
2017-11-17T04:54:03.692Z,21.67
2017-11-17T04:56:31.280Z,21.00
2017-11-17T04:58:58.872Z,20.45
2017-11-17T05:01:26.515Z,21.90
2017-11-17T05:03:54.104Z,21.02
2017-11-17T05:06:22.455Z,20.17
2017-11-17T05:08:50.005Z,20.42
2017-11-17T05:11:17.608Z,19.15
2017-11-17T05:13:45.962Z,21.98
2017-11-17T05:16:13.565Z,21.12
2017-11-17T05:18:41.155Z,20.05
2017-11-17T05:21:08.703Z,20.83
2017-11-17T05:23:36.502Z,21.30
2017-11-17T05:26:04.099Z,21.27
2017-11-17T05:28:32.492Z,22.58
2017-11-17T05:31:00.118Z,21.37
2017-11-17T05:33:28.485Z,23.25
2017-11-17T05:35:56.081Z,20.00
2017-11-17T05:38:23.681Z,22.90
2017-11-17T05:40:51.268Z,21.17
2017-11-17T05:43:18.861Z,20.48
2017-11-17T05:45:47.214Z,21.40
2017-11-17T05:48:14.763Z,23.23
2017-11-17T05:50:42.352Z,21.60
2017-11-17T05:53:10.711Z,22.85
2017-11-17T05:55:38.310Z,23.23
2017-11-17T05:58:05.904Z,22.05
2017-11-17T06:00:33.498Z,22.58
2017-11-17T06:03:01.093Z,23.85
2017-11-17T06:05:28.728Z,23.30
2017-11-17T06:07:57.089Z,22.10
2017-11-17T06:10:24.812Z,23.35
2017-11-17T06:12:52.435Z,23.70
2017-11-17T06:15:20.804Z,23.27
2017-11-17T06:17:48.396Z,23.67
2017-11-17T06:20:15.992Z,25.30
2017-11-17T06:22:43.588Z,25.25
2017-11-17T06:25:11.188Z,25.23
2017-11-17T06:27:38.776Z,25.50
2017-11-17T06:30:06.322Z,26.05
2017-11-17T06:32:33.921Z,28.90
2017-11-17T06:35:01.508Z,27.77
2017-11-17T06:37:29.866Z,26.15
2017-11-17T06:39:57.425Z,26.48
2017-11-17T06:42:25.061Z,26.65
2017-11-17T06:44:52.660Z,25.55
2017-11-17T06:47:21.021Z,26.35
2017-11-17T06:49:48.632Z,24.95
2017-11-17T06:52:16.221Z,25.80
2017-11-17T06:54:43.798Z,25.95
2017-11-17T06:57:11.541Z,25.92
2017-11-17T06:59:39.157Z,26.15
2017-11-17T07:02:06.753Z,27.58
2017-11-17T07:04:34.350Z,26.95
2017-11-17T07:07:01.940Z,36.00
2017-11-17T07:09:29.538Z,28.62
2017-11-17T07:11:57.131Z,33.42
2017-11-17T07:14:24.735Z,26.17
2017-11-17T07:16:52.339Z,26.77
2017-11-17T07:19:19.972Z,28.10
2017-11-17T07:21:47.568Z,28.20
2017-11-17T07:24:15.166Z,26.35
2017-11-17T07:26:42.758Z,24.55
2017-11-17T07:29:10.356Z,25.60
2017-11-17T07:31:37.945Z,24.30
2017-11-17T07:34:06.308Z,21.83
2017-11-17T07:36:34.663Z,24.30
2017-11-17T07:39:02.258Z,22.42
2017-11-17T07:41:29.852Z,23.00
2017-11-17T07:43:57.441Z,21.90
2017-11-17T07:46:24.998Z,21.65
2017-11-17T07:48:52.601Z,21.83
2017-11-17T07:51:20.211Z,21.10
2017-11-17T07:53:47.807Z,19.55
2017-11-17T07:56:15.465Z,19.40
2017-11-17T07:58:43.026Z,20.12
2017-11-17T08:01:10.621Z,19.30
2017-11-17T08:03:38.212Z,16.05
2017-11-17T08:06:05.812Z,15.98
2017-11-17T08:08:34.185Z,15.85
2017-11-17T08:11:01.781Z,15.10
2017-11-17T08:13:29.376Z,15.35
2017-11-17T08:15:56.924Z,15.70
2017-11-17T08:18:31.285Z,14.02
2017-11-17T08:20:58.856Z,14.23
2017-11-17T08:23:27.221Z,14.02
2017-11-17T08:25:54.816Z,13.10
2017-11-17T08:28:22.411Z,11.73
2017-11-17T08:30:50.005Z,12.37
2017-11-17T08:33:17.604Z,12.60
2017-11-17T08:35:45.248Z,10.82
2017-11-17T08:38:13.626Z,10.25
2017-11-17T08:40:41.989Z,10.60
2017-11-17T08:43:09.587Z,11.07
2017-11-17T08:45:37.183Z,10.30
2017-11-17T08:48:05.343Z,9.23
2017-11-17T08:50:32.908Z,11.20
2017-11-17T08:53:00.472Z,10.45
2017-11-17T08:55:28.069Z,10.32
2017-11-17T08:57:56.407Z,10.65
2017-11-17T09:00:24.405Z,11.02
2017-11-17T09:02:51.993Z,9.30
2017-11-17T09:05:20.376Z,9.77
2017-11-17T09:07:47.933Z,9.50
2017-11-17T09:10:15.535Z,10.13
2017-11-17T09:12:43.128Z,9.40
2017-11-17T09:15:10.717Z,9.27
2017-11-17T09:17:39.108Z,9.38
2017-11-17T09:20:06.692Z,8.02
2017-11-17T09:22:34.280Z,8.27
2017-11-17T09:25:01.873Z,10.80
2017-11-17T09:27:30.212Z,9.80
2017-11-17T09:29:57.810Z,7.32
2017-11-17T09:32:26.210Z,7.82
2017-11-17T09:34:53.802Z,8.98
2017-11-17T09:37:21.381Z,7.87
2017-11-17T09:39:48.989Z,11.32
2017-11-17T09:42:16.545Z,7.75
2017-11-17T09:44:44.142Z,7.28
2017-11-17T09:47:11.736Z,6.55
2017-11-17T09:49:40.154Z,6.40
2017-11-17T09:52:07.721Z,5.57
2017-11-17T09:54:35.273Z,6.37
2017-11-17T09:57:02.873Z,6.20
2017-11-17T09:59:30.477Z,6.60
2017-11-17T10:01:58.080Z,5.82
2017-11-17T10:04:26.573Z,5.00
2017-11-17T10:06:54.141Z,6.90
2017-11-17T10:09:21.732Z,6.53
2017-11-17T10:11:50.100Z,6.97
2017-11-17T10:14:17.709Z,7.72
2017-11-17T10:16:45.872Z,8.65
2017-11-17T10:19:13.448Z,7.47
2017-11-17T10:21:41.021Z,6.95
2017-11-17T10:24:08.620Z,8.27
2017-11-17T10:26:37.002Z,8.55
2017-11-17T10:29:06.133Z,9.68
2017-11-17T10:31:33.704Z,9.63
2017-11-17T10:34:01.272Z,10.80
2017-11-17T10:36:28.824Z,9.68
2017-11-17T10:38:56.436Z,11.68
2017-11-17T10:41:24.832Z,10.98
2017-11-17T10:43:52.446Z,12.93
2017-11-17T10:46:20.065Z,11.63
2017-11-17T10:48:47.651Z,10.30
2017-11-17T10:51:15.248Z,11.55
2017-11-17T10:53:43.115Z,10.05
2017-11-17T10:56:17.095Z,11.10
2017-11-17T10:58:44.657Z,9.13
2017-11-17T11:01:12.249Z,7.85
2017-11-17T11:03:39.840Z,8.10
2017-11-17T11:06:07.441Z,7.75
2017-11-17T11:08:35.071Z,7.75
2017-11-17T11:11:08.204Z,9.18
2017-11-17T11:13:35.797Z,11.10
2017-11-17T11:16:04.174Z,11.15
2017-11-17T11:18:32.500Z,12.50
2017-11-17T11:21:00.070Z,11.12
2017-11-17T11:23:28.380Z,11.40
2017-11-17T11:25:55.989Z,10.80
2017-11-17T11:28:23.608Z,10.60
2017-11-17T11:30:52.006Z,10.10
2017-11-17T11:33:19.586Z,9.48
2017-11-17T11:35:47.203Z,11.10
2017-11-17T11:38:15.519Z,10.77
2017-11-17T11:40:43.093Z,11.90
2017-11-17T11:43:10.701Z,12.55
2017-11-17T11:45:38.310Z,12.23
2017-11-17T11:48:06.579Z,13.75
2017-11-17T11:50:34.142Z,13.88
2017-11-17T11:53:01.778Z,14.57
2017-11-17T11:55:30.108Z,15.63
2017-11-17T11:57:57.668Z,17.87
2017-11-17T12:00:25.343Z,18.00
2017-11-17T12:02:52.913Z,19.50
2017-11-17T12:05:20.525Z,19.12
2017-11-17T12:07:48.803Z,24.10
2017-11-17T12:10:16.406Z,21.85
2017-11-17T12:12:44.015Z,20.95
2017-11-17T12:15:11.607Z,19.60
2017-11-17T12:17:39.241Z,18.77
2017-11-17T12:20:06.856Z,21.80
2017-11-17T12:22:34.696Z,18.85
2017-11-17T12:25:02.275Z,16.80
2017-11-17T12:27:29.889Z,17.30
2017-11-17T12:29:57.498Z,15.82
2017-11-17T12:32:25.114Z,16.65
2017-11-17T12:34:52.737Z,17.92
2017-11-17T12:37:21.097Z,18.67
2017-11-17T12:39:48.753Z,17.45
2017-11-17T12:42:16.381Z,16.00
2017-11-17T12:44:43.997Z,13.18
2017-11-17T12:47:11.598Z,15.80
2017-11-17T12:49:39.295Z,16.23
2017-11-17T12:52:06.852Z,17.50
2017-11-17T12:54:34.564Z,16.65
2017-11-17T12:57:02.216Z,16.83
2017-11-17T12:59:30.602Z,16.05
2017-11-17T13:01:58.207Z,14.73
2017-11-17T13:04:26.453Z,16.08
2017-11-17T13:06:54.087Z,16.33
2017-11-17T13:09:22.435Z,15.10
2017-11-17T13:11:50.040Z,14.13
2017-11-17T13:14:17.671Z,14.40
2017-11-17T13:16:45.273Z,15.05
2017-11-17T13:19:12.977Z,14.95
2017-11-17T13:21:40.544Z,15.43
2017-11-17T13:24:08.138Z,16.02
2017-11-17T13:26:36.498Z,14.32
2017-11-17T13:29:04.106Z,14.93
2017-11-17T13:31:31.672Z,11.60
2017-11-17T13:33:59.385Z,13.82
2017-11-17T13:36:26.959Z,13.00
2017-11-17T13:38:55.365Z,13.05
2017-11-17T13:41:23.784Z,12.37
2017-11-17T13:43:52.288Z,10.88
2017-11-17T13:46:19.951Z,10.15
2017-11-17T13:48:47.586Z,11.43
2017-11-17T13:51:15.201Z,9.98
2017-11-17T13:53:42.801Z,11.63
2017-11-17T13:56:10.401Z,11.50
2017-11-17T13:58:39.440Z,10.40
2017-11-17T14:01:07.050Z,11.32
2017-11-17T14:03:34.622Z,13.38
2017-11-17T14:06:02.972Z,12.37
2017-11-17T14:08:30.595Z,12.82
2017-11-17T14:10:58.162Z,13.70
2017-11-17T14:13:25.884Z,13.23
2017-11-17T14:15:54.260Z,14.25
2017-11-17T14:18:22.636Z,16.87
2017-11-17T14:20:50.976Z,16.90
2017-11-17T14:23:18.942Z,14.50
2017-11-17T14:25:46.555Z,13.48
2017-11-17T14:28:14.130Z,17.75
2017-11-17T14:30:41.705Z,17.60
2017-11-17T14:33:09.339Z,17.80
2017-11-17T14:35:37.745Z,18.33
2017-11-17T14:38:05.522Z,16.25
2017-11-17T14:40:33.296Z,14.07
2017-11-17T14:43:00.909Z,12.65
2017-11-17T14:45:28.563Z,11.35
2017-11-17T14:47:56.929Z,12.32
2017-11-17T14:50:24.580Z,11.90
2017-11-17T14:52:52.190Z,12.10
2017-11-17T14:55:19.810Z,14.52
2017-11-17T14:57:47.402Z,13.93
2017-11-17T15:00:14.997Z,13.70
2017-11-17T15:02:42.620Z,12.65
2017-11-17T15:05:10.989Z,10.75
2017-11-17T15:07:39.357Z,11.55
2017-11-17T15:10:07.052Z,13.95
2017-11-17T15:12:34.670Z,13.10
2017-11-17T15:15:02.309Z,12.75
2017-11-17T15:17:29.920Z,10.20
2017-11-17T15:19:58.286Z,12.50
2017-11-17T15:22:25.932Z,11.05
2017-11-17T15:24:53.565Z,11.20
2017-11-17T15:27:21.218Z,12.40
2017-11-17T15:29:48.799Z,12.35
2017-11-17T15:32:16.395Z,11.77
2017-11-17T15:34:44.069Z,12.70
2017-11-17T15:37:12.457Z,13.02
2017-11-17T15:39:40.096Z,12.90
2017-11-17T15:42:08.458Z,13.88
2017-11-17T15:44:36.073Z,13.95
2017-11-17T15:47:03.701Z,14.40
2017-11-17T15:49:32.133Z,12.65
2017-11-17T15:51:59.746Z,11.45
2017-11-17T15:54:28.172Z,11.02
2017-11-17T15:56:55.740Z,10.27
2017-11-17T15:59:23.396Z,12.02
2017-11-17T16:01:50.999Z,12.90
2017-11-17T16:04:19.369Z,12.15
2017-11-17T16:06:46.928Z,13.70
2017-11-17T16:09:14.501Z,12.13
2017-11-17T16:11:42.071Z,10.63
2017-11-17T16:14:10.448Z,12.07
2017-11-17T16:16:38.958Z,13.43
2017-11-17T16:19:06.565Z,13.35
2017-11-17T16:21:34.155Z,12.93
2017-11-17T16:24:02.598Z,13.10
2017-11-17T16:26:30.157Z,11.73
2017-11-17T16:28:57.945Z,10.40
2017-11-17T16:31:25.560Z,12.98
2017-11-17T16:33:53.156Z,14.32
2017-11-17T16:36:20.729Z,10.60
2017-11-17T16:38:49.121Z,11.65
2017-11-17T16:41:17.506Z,13.00
2017-11-17T16:43:45.168Z,10.57
2017-11-17T16:46:14.430Z,12.10
2017-11-17T16:48:42.034Z,9.30
2017-11-17T16:51:09.637Z,9.82
2017-11-17T16:53:37.308Z,7.57
2017-11-17T16:56:04.901Z,8.05
2017-11-17T16:58:33.273Z,8.23
2017-11-17T17:01:00.943Z,7.57
2017-11-17T17:03:29.276Z,9.10
2017-11-17T17:05:57.082Z,8.48
2017-11-17T17:08:25.411Z,9.07
2017-11-17T17:10:53.399Z,9.27
2017-11-17T17:13:22.279Z,9.48
2017-11-17T17:15:49.909Z,9.70
2017-11-17T17:18:17.517Z,12.02
2017-11-17T17:20:45.222Z,26.37
2017-11-17T17:23:12.889Z,33.70
2017-11-17T17:25:40.517Z,85.25
2017-11-17T17:28:08.164Z,41.00
2017-11-17T17:30:35.716Z,41.45
2017-11-17T17:33:03.317Z,36.53
2017-11-17T17:35:31.641Z,40.70
2017-11-17T17:37:59.250Z,39.35
2017-11-17T17:40:26.862Z,30.42
2017-11-17T17:42:54.513Z,24.35
2017-11-17T17:45:22.131Z,21.05
2017-11-17T17:47:50.683Z,22.00
2017-11-17T17:50:18.293Z,24.90
2017-11-17T17:52:46.656Z,26.12
2017-11-17T17:55:14.941Z,37.42
2017-11-17T17:57:43.328Z,32.13
2017-11-17T18:00:11.726Z,35.05
2017-11-17T18:02:39.311Z,50.20
2017-11-17T18:05:06.932Z,59.08
2017-11-17T18:07:49.509Z,61.75
2017-11-17T18:10:17.112Z,57.15
2017-11-17T18:12:44.889Z,58.33
2017-11-17T18:15:12.490Z,57.55
2017-11-17T18:17:40.086Z,58.53
2017-11-17T18:20:08.445Z,52.83
2017-11-17T18:22:36.249Z,46.10
2017-11-17T18:25:04.603Z,49.55
2017-11-17T18:27:32.233Z,48.40
2017-11-17T18:29:59.793Z,43.15
2017-11-17T18:32:27.392Z,33.03
2017-11-17T18:34:55.810Z,20.65
2017-11-17T18:37:23.375Z,25.10
2017-11-17T18:39:50.995Z,19.55
2017-11-17T18:42:19.569Z,18.05
2017-11-17T18:44:47.960Z,16.83
2017-11-17T18:47:16.312Z,15.77
2017-11-17T18:49:43.968Z,13.20
2017-11-17T18:52:11.586Z,14.80
2017-11-17T18:54:39.185Z,12.80
2017-11-17T18:57:06.751Z,12.05
2017-11-17T18:59:34.538Z,10.80
2017-11-17T19:02:02.281Z,12.15
2017-11-17T19:04:30.752Z,10.40
2017-11-17T19:06:59.012Z,10.32
2017-11-17T19:09:26.819Z,11.10
2017-11-17T19:11:55.454Z,10.15
2017-11-17T19:14:23.314Z,12.13
2017-11-17T19:16:51.645Z,11.07
2017-11-17T19:19:19.203Z,13.10
2017-11-17T19:21:46.812Z,16.40
2017-11-17T19:24:14.388Z,15.10
2017-11-17T19:26:41.947Z,15.98
2017-11-17T19:29:09.558Z,16.02
2017-11-17T19:31:37.882Z,19.90
2017-11-17T19:34:05.493Z,22.45
2017-11-17T19:36:33.861Z,20.70
2017-11-17T19:39:01.422Z,18.25
2017-11-17T19:41:29.012Z,20.85
2017-11-17T19:43:56.597Z,23.12
2017-11-17T19:46:24.239Z,17.87
2017-11-17T19:48:51.952Z,17.25
2017-11-17T19:51:19.608Z,18.58
2017-11-17T19:53:47.932Z,21.25
2017-11-17T19:56:16.486Z,35.03
2017-11-17T19:58:44.081Z,33.20
2017-11-17T20:01:11.684Z,23.65
2017-11-17T20:03:39.489Z,18.35
2017-11-17T20:06:07.845Z,20.85
2017-11-17T20:08:52.992Z,24.73
2017-11-17T20:11:20.657Z,23.50
2017-11-17T20:13:49.313Z,21.27
2017-11-17T20:16:16.908Z,15.93
2017-11-17T20:18:46.241Z,16.20
2017-11-17T20:21:14.758Z,17.45
2017-11-17T20:23:44.030Z,18.65
2017-11-17T20:26:12.493Z,21.67
2017-11-17T20:28:40.206Z,22.27
2017-11-17T20:31:07.787Z,22.13
2017-11-17T20:33:35.342Z,21.85
2017-11-17T20:36:03.703Z,21.45
2017-11-17T20:38:31.302Z,15.52
2017-11-17T20:40:59.049Z,16.27
2017-11-17T20:43:26.684Z,17.80
2017-11-17T20:45:54.558Z,19.23
2017-11-17T20:48:22.833Z,19.95
2017-11-17T20:50:50.439Z,15.65
2017-11-17T20:53:18.047Z,17.23
2017-11-17T20:55:45.668Z,21.62
2017-11-17T20:58:13.424Z,22.55
2017-11-17T21:00:41.078Z,22.80
2017-11-17T21:03:09.472Z,24.00
2017-11-17T21:05:37.069Z,19.08
2017-11-17T21:08:04.662Z,14.23
2017-11-17T21:10:32.252Z,13.70
2017-11-17T21:12:59.896Z,13.95
2017-11-17T21:15:27.493Z,17.05
2017-11-17T21:17:55.857Z,17.37
2017-11-17T21:20:23.459Z,13.82
2017-11-17T21:22:51.057Z,12.98
2017-11-17T21:25:18.697Z,14.98
2017-11-17T21:27:46.260Z,15.50
2017-11-17T21:30:13.815Z,18.08
2017-11-17T21:32:41.421Z,20.83
2017-11-17T21:35:09.035Z,18.87
2017-11-17T21:37:36.635Z,18.45
2017-11-17T21:40:04.199Z,16.10
2017-11-17T21:42:31.865Z,17.90
2017-11-17T21:44:59.420Z,19.67
2017-11-17T21:47:27.116Z,18.42
2017-11-17T21:49:55.473Z,18.00
2017-11-17T21:52:23.065Z,19.83
2017-11-17T21:54:50.660Z,19.60
2017-11-17T21:57:18.236Z,20.15
2017-11-17T21:59:45.851Z,19.98
2017-11-17T22:02:13.465Z,25.95
2017-11-17T22:04:41.066Z,53.63
2017-11-17T22:07:08.628Z,94.93
2017-11-17T22:09:36.266Z,27.80
2017-11-17T22:12:04.628Z,41.63
2017-11-17T22:14:32.228Z,21.87
2017-11-17T22:16:59.884Z,35.53
2017-11-17T22:19:28.204Z,28.15
2017-11-17T22:21:55.799Z,34.20
2017-11-17T22:24:23.552Z,27.90
2017-11-17T22:26:51.195Z,27.95
2017-11-17T22:29:18.788Z,31.73
2017-11-17T22:31:46.375Z,26.77
2017-11-17T22:34:13.973Z,25.52
2017-11-17T22:36:41.570Z,26.12
2017-11-17T22:39:09.164Z,27.70
2017-11-17T22:41:36.776Z,26.27
2017-11-17T22:44:04.368Z,27.48
2017-11-17T22:46:32.729Z,25.55
2017-11-17T22:49:00.324Z,27.70
2017-11-17T22:51:27.901Z,28.90
2017-11-17T22:53:55.493Z,30.23
2017-11-17T22:56:23.270Z,24.67
2017-11-17T22:58:51.028Z,22.45
2017-11-17T23:01:18.627Z,19.87
2017-11-17T23:03:46.217Z,21.30
2017-11-17T23:06:13.817Z,21.55
2017-11-17T23:08:41.424Z,20.50
2017-11-17T23:11:09.018Z,19.12
2017-11-17T23:13:36.617Z,21.83
2017-11-17T23:16:04.973Z,20.85
2017-11-17T23:18:32.577Z,23.70
2017-11-17T23:21:00.132Z,23.30
2017-11-17T23:23:27.728Z,18.58
2017-11-17T23:25:55.322Z,19.50
2017-11-17T23:28:22.917Z,17.98
2017-11-17T23:30:50.513Z,18.27
2017-11-17T23:33:18.100Z,19.23
2017-11-17T23:35:45.664Z,19.55
2017-11-17T23:38:13.271Z,20.25
2017-11-17T23:40:40.894Z,19.15
2017-11-17T23:43:09.264Z,17.98
2017-11-17T23:45:36.851Z,17.27
2017-11-17T23:48:05.219Z,18.20
2017-11-17T23:50:34.371Z,21.10
2017-11-17T23:53:02.089Z,19.10
2017-11-17T23:55:30.489Z,18.27
2017-11-17T23:57:58.094Z,19.40
